sensor_id;sensor_type;location;lat;lon;timestamp;temperature;humidity
51619;DHT22;38518;53.164;5.430;2023-06-04T00:01:54;11.50;1.00
51619;DHT22;38518;53.164;5.430;2023-06-04T00:04:20;11.50;1.00
51619;DHT22;38518;53.164;5.430;2023-06-04T00:06:47;11.50;1.00
51619;DHT22;38518;53.164;5.430;2023-06-04T00:09:13;11.30;1.00
51619;DHT22;38518;53.164;5.430;2023-06-04T00:11:39;11.40;1.00
51619;DHT22;38518;53.164;5.430;2023-06-04T00:14:05;11.30;1.00
51619;DHT22;38518;53.164;5.430;2023-06-04T00:16:30;11.30;1.00
51619;DHT22;38518;53.164;5.430;2023-06-04T00:18:56;11.90;1.00
51619;DHT22;38518;53.164;5.430;2023-06-04T00:21:22;11.30;9.70
51619;DHT22;38518;53.164;5.430;2023-06-04T00:23:47;11.50;12.40
51619;DHT22;38518;53.164;5.430;2023-06-04T00:26:13;11.20;9.60
51619;DHT22;38518;53.164;5.430;2023-06-04T00:28:39;11.30;19.80
51619;DHT22;38518;53.164;5.430;2023-06-04T00:31:08;11.30;18.20
51619;DHT22;38518;53.164;5.430;2023-06-04T00:33:35;11.10;17.50
51619;DHT22;38518;53.164;5.430;2023-06-04T00:36:01;11.20;30.50
51619;DHT22;38518;53.164;5.430;2023-06-04T00:38:27;11.60;37.30
51619;DHT22;38518;53.164;5.430;2023-06-04T00:40:53;11.30;47.00
51619;DHT22;38518;53.164;5.430;2023-06-04T00:43:19;9.90;54.80
51619;DHT22;38518;53.164;5.430;2023-06-04T00:45:45;11.80;66.00
51619;DHT22;38518;53.164;5.430;2023-06-04T00:48:11;11.60;74.10
51619;DHT22;38518;53.164;5.430;2023-06-04T00:50:37;11.80;86.00
51619;DHT22;38518;53.164;5.430;2023-06-04T00:53:04;11.70;87.80
51619;DHT22;38518;53.164;5.430;2023-06-04T00:55:31;11.20;95.20
51619;DHT22;38518;53.164;5.430;2023-06-04T00:57:57;11.00;99.90
51619;DHT22;38518;53.164;5.430;2023-06-04T01:00:23;11.00;99.90
51619;DHT22;38518;53.164;5.430;2023-06-04T01:02:50;11.00;99.90
51619;DHT22;38518;53.164;5.430;2023-06-04T01:05:26;10.90;99.90
51619;DHT22;38518;53.164;5.430;2023-06-04T01:07:56;11.10;99.90
51619;DHT22;38518;53.164;5.430;2023-06-04T01:10:22;10.80;99.90
51619;DHT22;38518;53.164;5.430;2023-06-04T01:12:48;10.70;99.90
51619;DHT22;38518;53.164;5.430;2023-06-04T01:15:14;10.90;99.90
51619;DHT22;38518;53.164;5.430;2023-06-04T01:17:46;10.90;99.90
51619;DHT22;38518;53.164;5.430;2023-06-04T01:20:34;10.60;8.30
51619;DHT22;38518;53.164;5.430;2023-06-04T01:26:09;10.60;12.90
51619;DHT22;38518;53.164;5.430;2023-06-04T01:28:36;10.60;11.80
51619;DHT22;38518;53.164;5.430;2023-06-04T01:31:03;10.50;14.00
51619;DHT22;38518;53.164;5.430;2023-06-04T01:33:30;10.60;15.00
51619;DHT22;38518;53.164;5.430;2023-06-04T01:35:56;10.20;18.50
51619;DHT22;38518;53.164;5.430;2023-06-04T01:38:21;10.50;17.30
51619;DHT22;38518;53.164;5.430;2023-06-04T01:40:47;10.50;18.10
51619;DHT22;38518;53.164;5.430;2023-06-04T01:43:13;10.40;19.30
51619;DHT22;38518;53.164;5.430;2023-06-04T01:45:39;10.40;21.30
51619;DHT22;38518;53.164;5.430;2023-06-04T01:48:07;10.40;21.30
51619;DHT22;38518;53.164;5.430;2023-06-04T01:50:33;10.30;23.60
51619;DHT22;38518;53.164;5.430;2023-06-04T01:52:59;10.30;24.20
51619;DHT22;38518;53.164;5.430;2023-06-04T01:55:25;10.30;24.60
51619;DHT22;38518;53.164;5.430;2023-06-04T01:57:51;10.30;24.60
51619;DHT22;38518;53.164;5.430;2023-06-04T02:00:17;10.30;25.70
51619;DHT22;38518;53.164;5.430;2023-06-04T02:02:44;10.30;25.50
51619;DHT22;38518;53.164;5.430;2023-06-04T02:05:14;10.30;26.30
51619;DHT22;38518;53.164;5.430;2023-06-04T02:07:41;10.30;26.50
51619;DHT22;38518;53.164;5.430;2023-06-04T02:10:18;10.30;26.80
51619;DHT22;38518;53.164;5.430;2023-06-04T02:13:01;10.30;28.90
51619;DHT22;38518;53.164;5.430;2023-06-04T02:15:31;10.20;31.10
51619;DHT22;38518;53.164;5.430;2023-06-04T02:17:59;10.30;33.10
51619;DHT22;38518;53.164;5.430;2023-06-04T02:20:28;10.20;35.50
51619;DHT22;38518;53.164;5.430;2023-06-04T02:22:54;10.20;37.50
51619;DHT22;38518;53.164;5.430;2023-06-04T02:25:21;10.20;38.90
51619;DHT22;38518;53.164;5.430;2023-06-04T02:27:47;10.10;43.20
51619;DHT22;38518;53.164;5.430;2023-06-04T02:30:12;10.10;43.40
51619;DHT22;38518;53.164;5.430;2023-06-04T02:32:38;10.10;44.20
51619;DHT22;38518;53.164;5.430;2023-06-04T02:35:04;10.10;45.50
51619;DHT22;38518;53.164;5.430;2023-06-04T02:37:30;10.00;45.70
51619;DHT22;38518;53.164;5.430;2023-06-04T02:39:56;10.00;47.20
51619;DHT22;38518;53.164;5.430;2023-06-04T02:42:22;10.00;49.60
51619;DHT22;38518;53.164;5.430;2023-06-04T02:44:48;10.00;51.70
51619;DHT22;38518;53.164;5.430;2023-06-04T02:47:13;10.00;51.90
51619;DHT22;38518;53.164;5.430;2023-06-04T02:49:42;10.00;52.00
51619;DHT22;38518;53.164;5.430;2023-06-04T02:52:08;10.00;52.40
51619;DHT22;38518;53.164;5.430;2023-06-04T02:54:34;10.00;54.20
51619;DHT22;38518;53.164;5.430;2023-06-04T02:57:00;10.00;54.80
51619;DHT22;38518;53.164;5.430;2023-06-04T02:59:25;10.00;57.00
51619;DHT22;38518;53.164;5.430;2023-06-04T03:01:51;9.90;60.10
51619;DHT22;38518;53.164;5.430;2023-06-04T03:04:17;9.90;61.10
51619;DHT22;38518;53.164;5.430;2023-06-04T03:06:43;9.90;64.20
51619;DHT22;38518;53.164;5.430;2023-06-04T03:09:13;9.90;66.70
51619;DHT22;38518;53.164;5.430;2023-06-04T03:11:39;9.90;67.50
51619;DHT22;38518;53.164;5.430;2023-06-04T03:14:05;9.90;69.60
51619;DHT22;38518;53.164;5.430;2023-06-04T03:16:31;9.90;71.60
51619;DHT22;38518;53.164;5.430;2023-06-04T03:18:56;9.80;73.80
51619;DHT22;38518;53.164;5.430;2023-06-04T03:21:22;9.80;74.90
51619;DHT22;38518;53.164;5.430;2023-06-04T03:23:50;9.90;76.40
51619;DHT22;38518;53.164;5.430;2023-06-04T03:26:16;9.80;75.80
51619;DHT22;38518;53.164;5.430;2023-06-04T03:28:42;9.80;78.70
51619;DHT22;38518;53.164;5.430;2023-06-04T03:31:08;9.80;81.10
51619;DHT22;38518;53.164;5.430;2023-06-04T03:33:33;9.80;85.60
51619;DHT22;38518;53.164;5.430;2023-06-04T03:35:59;9.80;90.40
51619;DHT22;38518;53.164;5.430;2023-06-04T03:38:27;9.80;92.80
51619;DHT22;38518;53.164;5.430;2023-06-04T03:40:53;9.80;95.60
51619;DHT22;38518;53.164;5.430;2023-06-04T03:43:20;9.90;95.00
51619;DHT22;38518;53.164;5.430;2023-06-04T03:45:46;9.50;95.50
51619;DHT22;38518;53.164;5.430;2023-06-04T03:48:11;9.90;96.10
51619;DHT22;38518;53.164;5.430;2023-06-04T03:50:37;9.90;98.80
51619;DHT22;38518;53.164;5.430;2023-06-04T03:53:03;9.90;99.70
51619;DHT22;38518;53.164;5.430;2023-06-04T03:55:31;10.00;99.90
51619;DHT22;38518;53.164;5.430;2023-06-04T03:57:58;9.90;99.90
51619;DHT22;38518;53.164;5.430;2023-06-04T04:00:24;10.00;99.90
51619;DHT22;38518;53.164;5.430;2023-06-04T04:02:50;10.00;99.90
51619;DHT22;38518;53.164;5.430;2023-06-04T04:05:15;10.00;99.90
51619;DHT22;38518;53.164;5.430;2023-06-04T04:07:42;10.00;99.90
51619;DHT22;38518;53.164;5.430;2023-06-04T04:10:07;10.10;99.90
51619;DHT22;38518;53.164;5.430;2023-06-04T04:12:33;10.10;99.90
51619;DHT22;38518;53.164;5.430;2023-06-04T04:14:59;10.10;99.90
51619;DHT22;38518;53.164;5.430;2023-06-04T04:17:25;10.20;99.90
51619;DHT22;38518;53.164;5.430;2023-06-04T04:19:51;10.20;99.90
51619;DHT22;38518;53.164;5.430;2023-06-04T04:22:17;10.20;99.90
51619;DHT22;38518;53.164;5.430;2023-06-04T04:24:43;10.70;99.90
51619;DHT22;38518;53.164;5.430;2023-06-04T04:27:09;10.30;99.90
51619;DHT22;38518;53.164;5.430;2023-06-04T04:29:37;10.40;99.90
51619;DHT22;38518;53.164;5.430;2023-06-04T04:32:03;10.40;99.90
51619;DHT22;38518;53.164;5.430;2023-06-04T04:34:52;10.40;99.90
51619;DHT22;38518;53.164;5.430;2023-06-04T04:37:19;10.50;99.90
51619;DHT22;38518;53.164;5.430;2023-06-04T04:39:47;10.50;99.90
51619;DHT22;38518;53.164;5.430;2023-06-04T04:42:17;10.60;99.90
51619;DHT22;38518;53.164;5.430;2023-06-04T04:44:44;10.70;99.90
51619;DHT22;38518;53.164;5.430;2023-06-04T04:47:16;10.70;99.90
51619;DHT22;38518;53.164;5.430;2023-06-04T04:49:42;10.90;99.90
51619;DHT22;38518;53.164;5.430;2023-06-04T04:52:08;10.90;99.90
51619;DHT22;38518;53.164;5.430;2023-06-04T04:54:33;11.00;99.90
51619;DHT22;38518;53.164;5.430;2023-06-04T04:56:59;11.00;99.90
51619;DHT22;38518;53.164;5.430;2023-06-04T04:59:26;11.10;99.90
51619;DHT22;38518;53.164;5.430;2023-06-04T05:01:52;11.00;99.90
51619;DHT22;38518;53.164;5.430;2023-06-04T05:04:18;11.20;99.90
51619;DHT22;38518;53.164;5.430;2023-06-04T05:06:43;11.30;99.90
51619;DHT22;38518;53.164;5.430;2023-06-04T05:09:09;11.40;99.90
51619;DHT22;38518;53.164;5.430;2023-06-04T05:11:35;11.50;99.90
51619;DHT22;38518;53.164;5.430;2023-06-04T05:14:01;11.60;99.90
51619;DHT22;38518;53.164;5.430;2023-06-04T05:16:27;11.60;99.90
51619;DHT22;38518;53.164;5.430;2023-06-04T05:18:53;11.70;99.90
51619;DHT22;38518;53.164;5.430;2023-06-04T05:21:22;11.90;99.90
51619;DHT22;38518;53.164;5.430;2023-06-04T05:23:48;11.90;99.90
51619;DHT22;38518;53.164;5.430;2023-06-04T05:26:14;12.00;99.90
51619;DHT22;38518;53.164;5.430;2023-06-04T05:28:40;12.10;99.90
51619;DHT22;38518;53.164;5.430;2023-06-04T05:31:09;12.00;99.90
51619;DHT22;38518;53.164;5.430;2023-06-04T05:33:35;12.30;99.90
51619;DHT22;38518;53.164;5.430;2023-06-04T05:36:01;12.40;99.90
51619;DHT22;38518;53.164;5.430;2023-06-04T05:38:28;12.50;99.90
51619;DHT22;38518;53.164;5.430;2023-06-04T05:40:56;12.60;99.90
51619;DHT22;38518;53.164;5.430;2023-06-04T05:43:22;12.70;99.90
51619;DHT22;38518;53.164;5.430;2023-06-04T05:45:48;12.90;99.90
51619;DHT22;38518;53.164;5.430;2023-06-04T05:48:14;13.00;99.90
51619;DHT22;38518;53.164;5.430;2023-06-04T05:50:40;13.10;99.90
51619;DHT22;38518;53.164;5.430;2023-06-04T05:53:05;13.20;99.90
51619;DHT22;38518;53.164;5.430;2023-06-04T05:55:32;13.30;99.90
51619;DHT22;38518;53.164;5.430;2023-06-04T05:57:58;13.40;99.90
51619;DHT22;38518;53.164;5.430;2023-06-04T06:00:24;13.70;99.70
51619;DHT22;38518;53.164;5.430;2023-06-04T06:02:50;14.00;74.90
51619;DHT22;38518;53.164;5.430;2023-06-04T06:05:18;14.20;54.40
51619;DHT22;38518;53.164;5.430;2023-06-04T06:07:45;14.30;43.40
51619;DHT22;38518;53.164;5.430;2023-06-04T06:10:12;14.50;39.50
51619;DHT22;38518;53.164;5.430;2023-06-04T06:12:38;14.70;23.60
51619;DHT22;38518;53.164;5.430;2023-06-04T06:15:04;15.00;23.30
51619;DHT22;38518;53.164;5.430;2023-06-04T06:17:31;15.30;17.50
51619;DHT22;38518;53.164;5.430;2023-06-04T06:19:58;15.50;13.10
51619;DHT22;38518;53.164;5.430;2023-06-04T06:22:24;15.60;1.00
51619;DHT22;38518;53.164;5.430;2023-06-04T06:24:50;15.70;1.00
51619;DHT22;38518;53.164;5.430;2023-06-04T06:27:16;15.50;1.00
51619;DHT22;38518;53.164;5.430;2023-06-04T06:29:43;15.30;1.00
51619;DHT22;38518;53.164;5.430;2023-06-04T06:32:10;15.30;1.00
51619;DHT22;38518;53.164;5.430;2023-06-04T06:34:36;15.20;1.00
51619;DHT22;38518;53.164;5.430;2023-06-04T06:37:02;15.30;1.00
51619;DHT22;38518;53.164;5.430;2023-06-04T06:39:28;15.50;1.00
51619;DHT22;38518;53.164;5.430;2023-06-04T06:41:56;15.70;1.00
51619;DHT22;38518;53.164;5.430;2023-06-04T06:44:22;15.80;1.00
51619;DHT22;38518;53.164;5.430;2023-06-04T06:46:48;16.10;1.00
51619;DHT22;38518;53.164;5.430;2023-06-04T06:49:16;16.40;1.00
51619;DHT22;38518;53.164;5.430;2023-06-04T06:51:45;16.70;1.00
51619;DHT22;38518;53.164;5.430;2023-06-04T06:54:16;16.90;1.00
51619;DHT22;38518;53.164;5.430;2023-06-04T06:56:49;17.10;1.00
51619;DHT22;38518;53.164;5.430;2023-06-04T06:59:16;17.20;1.00
51619;DHT22;38518;53.164;5.430;2023-06-04T07:01:42;17.50;1.00
51619;DHT22;38518;53.164;5.430;2023-06-04T07:04:08;17.60;1.00
51619;DHT22;38518;53.164;5.430;2023-06-04T07:06:34;17.90;1.00
51619;DHT22;38518;53.164;5.430;2023-06-04T07:09:01;18.00;1.00
51619;DHT22;38518;53.164;5.430;2023-06-04T07:11:27;18.10;1.00
51619;DHT22;38518;53.164;5.430;2023-06-04T07:13:53;18.30;1.00
51619;DHT22;38518;53.164;5.430;2023-06-04T07:16:18;18.40;1.00
51619;DHT22;38518;53.164;5.430;2023-06-04T07:18:47;18.60;1.00
51619;DHT22;38518;53.164;5.430;2023-06-04T07:21:15;18.60;1.00
51619;DHT22;38518;53.164;5.430;2023-06-04T07:23:41;18.70;1.00
51619;DHT22;38518;53.164;5.430;2023-06-04T07:26:07;18.70;1.00
51619;DHT22;38518;53.164;5.430;2023-06-04T07:28:33;18.60;1.00
51619;DHT22;38518;53.164;5.430;2023-06-04T07:30:59;18.30;1.00
51619;DHT22;38518;53.164;5.430;2023-06-04T07:33:25;18.30;1.00
51619;DHT22;38518;53.164;5.430;2023-06-04T07:35:51;18.40;1.00
51619;DHT22;38518;53.164;5.430;2023-06-04T07:38:17;18.60;1.00
51619;DHT22;38518;53.164;5.430;2023-06-04T07:40:44;18.70;1.00
51619;DHT22;38518;53.164;5.430;2023-06-04T07:43:10;19.00;1.00
51619;DHT22;38518;53.164;5.430;2023-06-04T07:45:36;19.30;1.00
51619;DHT22;38518;53.164;5.430;2023-06-04T07:48:02;19.60;1.00
51619;DHT22;38518;53.164;5.430;2023-06-04T07:50:28;19.90;1.00
51619;DHT22;38518;53.164;5.430;2023-06-04T07:52:53;19.90;1.00
51619;DHT22;38518;53.164;5.430;2023-06-04T07:55:19;20.10;1.00
51619;DHT22;38518;53.164;5.430;2023-06-04T07:57:45;20.20;1.00
51619;DHT22;38518;53.164;5.430;2023-06-04T08:00:11;20.30;1.00
51619;DHT22;38518;53.164;5.430;2023-06-04T08:02:37;20.40;1.00
51619;DHT22;38518;53.164;5.430;2023-06-04T08:05:03;20.60;1.00
51619;DHT22;38518;53.164;5.430;2023-06-04T08:07:29;20.70;1.00
51619;DHT22;38518;53.164;5.430;2023-06-04T08:09:55;21.00;1.00
51619;DHT22;38518;53.164;5.430;2023-06-04T08:12:22;21.10;1.00
51619;DHT22;38518;53.164;5.430;2023-06-04T08:14:48;21.10;1.00
51619;DHT22;38518;53.164;5.430;2023-06-04T08:17:15;21.10;1.00
51619;DHT22;38518;53.164;5.430;2023-06-04T08:19:41;21.30;1.00
51619;DHT22;38518;53.164;5.430;2023-06-04T08:22:07;21.30;1.00
51619;DHT22;38518;53.164;5.430;2023-06-04T08:24:34;21.40;1.00
51619;DHT22;38518;53.164;5.430;2023-06-04T08:27:00;21.40;1.00
51619;DHT22;38518;53.164;5.430;2023-06-04T08:29:26;21.40;1.00
51619;DHT22;38518;53.164;5.430;2023-06-04T08:31:51;21.30;1.00
51619;DHT22;38518;53.164;5.430;2023-06-04T08:34:17;21.20;1.00
51619;DHT22;38518;53.164;5.430;2023-06-04T08:36:43;21.10;1.00
51619;DHT22;38518;53.164;5.430;2023-06-04T08:39:08;21.00;1.00
51619;DHT22;38518;53.164;5.430;2023-06-04T08:44:09;21.60;1.00
51619;DHT22;38518;53.164;5.430;2023-06-04T08:46:39;21.50;1.00
51619;DHT22;38518;53.164;5.430;2023-06-04T08:49:08;21.70;1.00
51619;DHT22;38518;53.164;5.430;2023-06-04T08:51:36;21.90;1.00
51619;DHT22;38518;53.164;5.430;2023-06-04T08:54:06;22.60;1.00
51619;DHT22;38518;53.164;5.430;2023-06-04T08:59:02;22.50;1.00
51619;DHT22;38518;53.164;5.430;2023-06-04T09:01:29;22.50;1.00
51619;DHT22;38518;53.164;5.430;2023-06-04T09:03:57;22.60;1.00
51619;DHT22;38518;53.164;5.430;2023-06-04T09:06:26;22.80;1.00
51619;DHT22;38518;53.164;5.430;2023-06-04T09:08:56;22.60;1.00
51619;DHT22;38518;53.164;5.430;2023-06-04T09:11:27;22.40;1.00
51619;DHT22;38518;53.164;5.430;2023-06-04T09:13:59;22.50;1.00
51619;DHT22;38518;53.164;5.430;2023-06-04T09:16:26;22.90;1.00
51619;DHT22;38518;53.164;5.430;2023-06-04T09:18:53;23.10;1.00
51619;DHT22;38518;53.164;5.430;2023-06-04T09:21:19;23.20;1.00
51619;DHT22;38518;53.164;5.430;2023-06-04T09:23:45;23.00;1.00
51619;DHT22;38518;53.164;5.430;2023-06-04T09:26:11;23.20;1.00
51619;DHT22;38518;53.164;5.430;2023-06-04T09:28:44;23.10;1.00
51619;DHT22;38518;53.164;5.430;2023-06-04T09:31:16;23.10;1.00
51619;DHT22;38518;53.164;5.430;2023-06-04T09:36:09;23.20;1.00
51619;DHT22;38518;53.164;5.430;2023-06-04T09:38:35;23.00;1.00
51619;DHT22;38518;53.164;5.430;2023-06-04T09:41:01;22.80;1.00
51619;DHT22;38518;53.164;5.430;2023-06-04T09:43:30;23.00;1.00
51619;DHT22;38518;53.164;5.430;2023-06-04T09:48:35;23.00;1.00
51619;DHT22;38518;53.164;5.430;2023-06-04T09:51:14;23.10;1.00
51619;DHT22;38518;53.164;5.430;2023-06-04T09:53:41;23.30;1.00
51619;DHT22;38518;53.164;5.430;2023-06-04T09:56:07;23.10;1.00
51619;DHT22;38518;53.164;5.430;2023-06-04T09:58:34;23.20;1.00
51619;DHT22;38518;53.164;5.430;2023-06-04T10:01:02;23.30;1.00
51619;DHT22;38518;53.164;5.430;2023-06-04T10:03:36;23.30;1.00
51619;DHT22;38518;53.164;5.430;2023-06-04T10:06:05;23.50;1.00
51619;DHT22;38518;53.164;5.430;2023-06-04T10:11:13;23.40;1.00
51619;DHT22;38518;53.164;5.430;2023-06-04T10:13:53;23.30;1.00
51619;DHT22;38518;53.164;5.430;2023-06-04T10:18:55;22.90;1.00
51619;DHT22;38518;53.164;5.430;2023-06-04T10:21:22;23.00;1.00
51619;DHT22;38518;53.164;5.430;2023-06-04T10:23:50;23.20;1.00
51619;DHT22;38518;53.164;5.430;2023-06-04T10:26:16;23.20;1.00
51619;DHT22;38518;53.164;5.430;2023-06-04T10:28:42;23.30;1.00
51619;DHT22;38518;53.164;5.430;2023-06-04T10:31:12;23.60;1.00
51619;DHT22;38518;53.164;5.430;2023-06-04T10:33:41;23.60;1.00
51619;DHT22;38518;53.164;5.430;2023-06-04T10:36:23;23.80;1.00
51619;DHT22;38518;53.164;5.430;2023-06-04T10:38:54;24.10;1.00
51619;DHT22;38518;53.164;5.430;2023-06-04T10:41:22;23.60;1.00
51619;DHT22;38518;53.164;5.430;2023-06-04T10:43:49;23.70;1.00
51619;DHT22;38518;53.164;5.430;2023-06-04T10:46:17;23.90;1.00
51619;DHT22;38518;53.164;5.430;2023-06-04T10:48:51;24.20;1.00
51619;DHT22;38518;53.164;5.430;2023-06-04T10:51:40;24.40;1.00
51619;DHT22;38518;53.164;5.430;2023-06-04T10:54:07;24.40;1.00
51619;DHT22;38518;53.164;5.430;2023-06-04T10:56:34;24.80;1.00
51619;DHT22;38518;53.164;5.430;2023-06-04T10:59:17;24.70;1.00
51619;DHT22;38518;53.164;5.430;2023-06-04T11:01:44;24.50;1.00
51619;DHT22;38518;53.164;5.430;2023-06-04T11:04:23;24.50;1.00
51619;DHT22;38518;53.164;5.430;2023-06-04T11:07:08;24.40;1.00
51619;DHT22;38518;53.164;5.430;2023-06-04T11:09:38;24.40;1.00
51619;DHT22;38518;53.164;5.430;2023-06-04T11:12:12;24.30;1.00
51619;DHT22;38518;53.164;5.430;2023-06-04T11:14:38;24.40;1.00
51619;DHT22;38518;53.164;5.430;2023-06-04T11:17:11;24.40;1.00
51619;DHT22;38518;53.164;5.430;2023-06-04T11:19:38;24.70;1.00
51619;DHT22;38518;53.164;5.430;2023-06-04T11:22:11;24.70;1.00
51619;DHT22;38518;53.164;5.430;2023-06-04T11:24:37;24.90;1.00
51619;DHT22;38518;53.164;5.430;2023-06-04T11:27:04;24.50;1.00
51619;DHT22;38518;53.164;5.430;2023-06-04T11:29:29;25.20;1.00
51619;DHT22;38518;53.164;5.430;2023-06-04T11:31:55;24.60;1.00
51619;DHT22;38518;53.164;5.430;2023-06-04T11:34:30;24.50;1.00
51619;DHT22;38518;53.164;5.430;2023-06-04T11:37:09;24.30;1.00
51619;DHT22;38518;53.164;5.430;2023-06-04T11:39:36;24.30;1.00
51619;DHT22;38518;53.164;5.430;2023-06-04T11:42:07;24.10;1.00
51619;DHT22;38518;53.164;5.430;2023-06-04T11:44:33;24.10;1.00
51619;DHT22;38518;53.164;5.430;2023-06-04T11:46:59;23.80;1.00
51619;DHT22;38518;53.164;5.430;2023-06-04T11:49:25;23.70;1.00
51619;DHT22;38518;53.164;5.430;2023-06-04T11:51:53;23.80;1.00
51619;DHT22;38518;53.164;5.430;2023-06-04T11:54:20;23.80;1.00
51619;DHT22;38518;53.164;5.430;2023-06-04T11:56:48;23.90;1.00
51619;DHT22;38518;53.164;5.430;2023-06-04T11:59:16;24.10;1.00
51619;DHT22;38518;53.164;5.430;2023-06-04T12:01:44;24.20;1.00
51619;DHT22;38518;53.164;5.430;2023-06-04T12:04:19;23.90;1.00
51619;DHT22;38518;53.164;5.430;2023-06-04T12:06:55;23.90;1.00
51619;DHT22;38518;53.164;5.430;2023-06-04T12:09:32;23.90;1.00
51619;DHT22;38518;53.164;5.430;2023-06-04T12:12:05;23.80;1.00
51619;DHT22;38518;53.164;5.430;2023-06-04T12:14:31;24.10;1.00
51619;DHT22;38518;53.164;5.430;2023-06-04T12:17:08;24.10;1.00
51619;DHT22;38518;53.164;5.430;2023-06-04T12:19:48;24.10;1.00
51619;DHT22;38518;53.164;5.430;2023-06-04T12:22:14;24.20;1.00
51619;DHT22;38518;53.164;5.430;2023-06-04T12:24:53;23.70;1.00
51619;DHT22;38518;53.164;5.430;2023-06-04T12:27:20;24.20;1.00
51619;DHT22;38518;53.164;5.430;2023-06-04T12:30:03;24.30;1.00
51619;DHT22;38518;53.164;5.430;2023-06-04T12:32:29;24.10;1.00
51619;DHT22;38518;53.164;5.430;2023-06-04T12:34:56;24.00;1.00
51619;DHT22;38518;53.164;5.430;2023-06-04T12:37:22;24.00;1.00
51619;DHT22;38518;53.164;5.430;2023-06-04T12:39:50;24.10;1.00
51619;DHT22;38518;53.164;5.430;2023-06-04T12:42:18;24.40;1.00
51619;DHT22;38518;53.164;5.430;2023-06-04T12:44:44;24.60;1.00
51619;DHT22;38518;53.164;5.430;2023-06-04T12:47:10;24.50;1.00
51619;DHT22;38518;53.164;5.430;2023-06-04T12:49:37;24.30;1.00
51619;DHT22;38518;53.164;5.430;2023-06-04T12:52:03;24.30;1.00
51619;DHT22;38518;53.164;5.430;2023-06-04T12:54:29;24.20;1.00
51619;DHT22;38518;53.164;5.430;2023-06-04T12:56:56;24.10;1.00
51619;DHT22;38518;53.164;5.430;2023-06-04T12:59:26;24.00;1.00
51619;DHT22;38518;53.164;5.430;2023-06-04T13:01:55;23.90;1.00
51619;DHT22;38518;53.164;5.430;2023-06-04T13:04:21;23.80;1.00
51619;DHT22;38518;53.164;5.430;2023-06-04T13:06:49;23.70;1.00
51619;DHT22;38518;53.164;5.430;2023-06-04T13:09:17;23.80;1.00
51619;DHT22;38518;53.164;5.430;2023-06-04T13:11:44;24.10;1.00
51619;DHT22;38518;53.164;5.430;2023-06-04T13:14:11;24.50;1.00
51619;DHT22;38518;53.164;5.430;2023-06-04T13:16:40;24.80;1.00
51619;DHT22;38518;53.164;5.430;2023-06-04T13:19:06;24.60;1.00
51619;DHT22;38518;53.164;5.430;2023-06-04T13:21:33;24.60;1.00
51619;DHT22;38518;53.164;5.430;2023-06-04T13:24:02;24.20;1.00
51619;DHT22;38518;53.164;5.430;2023-06-04T13:26:28;24.30;1.00
51619;DHT22;38518;53.164;5.430;2023-06-04T13:28:53;24.10;1.00
51619;DHT22;38518;53.164;5.430;2023-06-04T13:31:19;24.10;1.00
51619;DHT22;38518;53.164;5.430;2023-06-04T13:33:45;24.10;1.00
51619;DHT22;38518;53.164;5.430;2023-06-04T13:36:11;24.10;1.00
51619;DHT22;38518;53.164;5.430;2023-06-04T13:38:37;24.30;1.00
51619;DHT22;38518;53.164;5.430;2023-06-04T13:41:03;24.10;1.00
51619;DHT22;38518;53.164;5.430;2023-06-04T13:43:28;24.20;1.00
51619;DHT22;38518;53.164;5.430;2023-06-04T13:45:54;24.10;1.00
51619;DHT22;38518;53.164;5.430;2023-06-04T13:48:20;24.30;1.00
51619;DHT22;38518;53.164;5.430;2023-06-04T13:50:46;24.00;1.00
51619;DHT22;38518;53.164;5.430;2023-06-04T13:53:12;23.90;1.00
51619;DHT22;38518;53.164;5.430;2023-06-04T13:55:38;23.70;1.00
51619;DHT22;38518;53.164;5.430;2023-06-04T13:58:05;23.60;1.00
51619;DHT22;38518;53.164;5.430;2023-06-04T14:00:31;23.60;1.00
51619;DHT22;38518;53.164;5.430;2023-06-04T14:02:57;23.10;1.00
51619;DHT22;38518;53.164;5.430;2023-06-04T14:05:25;23.30;1.00
51619;DHT22;38518;53.164;5.430;2023-06-04T14:07:53;23.50;1.00
51619;DHT22;38518;53.164;5.430;2023-06-04T14:10:19;23.60;1.00
51619;DHT22;38518;53.164;5.430;2023-06-04T14:12:45;23.70;1.00
51619;DHT22;38518;53.164;5.430;2023-06-04T14:15:11;24.00;1.00
51619;DHT22;38518;53.164;5.430;2023-06-04T14:17:43;24.30;1.00
51619;DHT22;38518;53.164;5.430;2023-06-04T14:20:12;24.60;1.00
51619;DHT22;38518;53.164;5.430;2023-06-04T14:22:39;24.70;1.00
51619;DHT22;38518;53.164;5.430;2023-06-04T14:25:05;24.50;1.00
51619;DHT22;38518;53.164;5.430;2023-06-04T14:27:32;24.20;1.00
51619;DHT22;38518;53.164;5.430;2023-06-04T14:29:58;24.10;1.00
51619;DHT22;38518;53.164;5.430;2023-06-04T14:32:24;23.90;1.00
51619;DHT22;38518;53.164;5.430;2023-06-04T14:34:50;24.00;1.00
51619;DHT22;38518;53.164;5.430;2023-06-04T14:37:16;24.20;1.00
51619;DHT22;38518;53.164;5.430;2023-06-04T14:39:42;24.10;1.00
51619;DHT22;38518;53.164;5.430;2023-06-04T14:42:08;24.00;1.00
51619;DHT22;38518;53.164;5.430;2023-06-04T14:44:34;23.80;1.00
51619;DHT22;38518;53.164;5.430;2023-06-04T14:47:00;23.70;1.00
51619;DHT22;38518;53.164;5.430;2023-06-04T14:49:25;24.10;1.00
51619;DHT22;38518;53.164;5.430;2023-06-04T14:51:51;24.00;1.00
51619;DHT22;38518;53.164;5.430;2023-06-04T14:54:17;24.10;1.00
51619;DHT22;38518;53.164;5.430;2023-06-04T14:56:43;23.90;1.00
51619;DHT22;38518;53.164;5.430;2023-06-04T14:59:10;23.90;1.00
51619;DHT22;38518;53.164;5.430;2023-06-04T15:01:38;23.70;1.00
51619;DHT22;38518;53.164;5.430;2023-06-04T15:04:06;24.00;1.00
51619;DHT22;38518;53.164;5.430;2023-06-04T15:06:32;23.90;1.00
51619;DHT22;38518;53.164;5.430;2023-06-04T15:08:58;24.20;1.00
51619;DHT22;38518;53.164;5.430;2023-06-04T15:11:24;24.40;1.00
51619;DHT22;38518;53.164;5.430;2023-06-04T15:13:52;24.60;1.00
51619;DHT22;38518;53.164;5.430;2023-06-04T15:16:17;24.60;1.00
51619;DHT22;38518;53.164;5.430;2023-06-04T15:18:43;24.80;1.00
51619;DHT22;38518;53.164;5.430;2023-06-04T15:21:09;24.80;1.00
51619;DHT22;38518;53.164;5.430;2023-06-04T15:23:34;24.60;1.00
51619;DHT22;38518;53.164;5.430;2023-06-04T15:26:00;24.50;1.00
51619;DHT22;38518;53.164;5.430;2023-06-04T15:28:26;24.60;1.00
51619;DHT22;38518;53.164;5.430;2023-06-04T15:30:52;24.60;1.00
51619;DHT22;38518;53.164;5.430;2023-06-04T15:33:17;24.40;1.00
51619;DHT22;38518;53.164;5.430;2023-06-04T15:35:43;24.20;1.00
51619;DHT22;38518;53.164;5.430;2023-06-04T15:38:09;24.10;1.00
51619;DHT22;38518;53.164;5.430;2023-06-04T15:40:34;23.40;1.00
51619;DHT22;38518;53.164;5.430;2023-06-04T15:43:00;22.60;1.00
51619;DHT22;38518;53.164;5.430;2023-06-04T15:45:26;21.80;1.00
51619;DHT22;38518;53.164;5.430;2023-06-04T15:47:52;21.10;1.00
51619;DHT22;38518;53.164;5.430;2023-06-04T15:50:18;20.60;1.00
51619;DHT22;38518;53.164;5.430;2023-06-04T15:52:45;19.90;1.00
51619;DHT22;38518;53.164;5.430;2023-06-04T15:55:11;19.70;1.00
51619;DHT22;38518;53.164;5.430;2023-06-04T15:57:37;20.00;1.00
51619;DHT22;38518;53.164;5.430;2023-06-04T16:00:04;19.20;1.00
51619;DHT22;38518;53.164;5.430;2023-06-04T16:02:30;19.10;1.00